createdAt,value
2019-02-27T00:00:22.596Z,70.10
2019-02-27T00:02:50.859Z,70.70
2019-02-27T00:05:19.098Z,70.80
2019-02-27T00:07:47.355Z,70.80
2019-02-27T00:10:15.603Z,70.10
2019-02-27T00:12:43.877Z,71.00
2019-02-27T00:15:12.113Z,70.00
2019-02-27T00:17:40.366Z,69.60
2019-02-27T00:20:08.620Z,69.50
2019-02-27T00:22:36.854Z,69.60
2019-02-27T00:25:05.267Z,68.60
2019-02-27T00:27:33.508Z,69.10
2019-02-27T00:30:04.621Z,68.30
2019-02-27T00:32:31.733Z,68.50
2019-02-27T00:35:00.009Z,68.60
2019-02-27T00:37:28.332Z,69.00
2019-02-27T00:39:56.600Z,69.10
2019-02-27T00:42:33.331Z,69.20
2019-02-27T00:44:54.844Z,68.90
2019-02-27T00:47:23.083Z,68.90
2019-02-27T00:49:51.333Z,68.30
2019-02-27T00:52:19.590Z,68.70
2019-02-27T00:54:47.824Z,68.80
2019-02-27T00:57:20.514Z,69.40
2019-02-27T00:59:46.098Z,69.00
2019-02-27T01:02:14.352Z,68.80
2019-02-27T01:04:42.589Z,68.40
2019-02-27T01:07:10.834Z,69.20
2019-02-27T01:09:39.550Z,69.70
2019-02-27T01:12:08.330Z,70.00
2019-02-27T01:14:37.191Z,70.10
2019-02-27T01:17:06.011Z,70.10
2019-02-27T01:19:38.342Z,70.50
2019-02-27T01:22:04.237Z,70.60
2019-02-27T01:24:32.501Z,70.40
2019-02-27T01:27:04.295Z,70.50
2019-02-27T01:29:30.769Z,69.90
2019-02-27T01:31:59.006Z,70.80
2019-02-27T01:34:27.301Z,70.80
2019-02-27T01:36:57.996Z,71.00
2019-02-27T01:39:25.525Z,70.60
2019-02-27T01:41:55.356Z,70.80
2019-02-27T01:44:23.726Z,70.80
2019-02-27T01:46:51.998Z,70.10
2019-02-27T01:49:20.230Z,71.50
2019-02-27T01:51:48.502Z,71.10
2019-02-27T01:54:16.750Z,71.50
2019-02-27T01:56:44.989Z,71.70
2019-02-27T01:59:14.045Z,71.60
2019-02-27T02:01:43.226Z,71.60
2019-02-27T02:04:11.488Z,71.70
2019-02-27T02:06:39.752Z,72.00
2019-02-27T02:09:11.269Z,71.40
2019-02-27T02:11:41.178Z,71.40
2019-02-27T02:14:37.069Z,71.40
2019-02-27T02:17:41.803Z,71.40
2019-02-27T02:20:37.459Z,71.80
2019-02-27T02:23:14.808Z,72.00
2019-02-27T02:25:55.183Z,72.00
2019-02-27T02:28:48.233Z,72.50
2019-02-27T02:31:41.039Z,72.30
2019-02-27T02:34:56.901Z,72.50
2019-02-27T02:37:44.812Z,72.60
2019-02-27T02:40:32.071Z,72.90
2019-02-27T02:43:18.743Z,72.70
2019-02-27T02:46:10.965Z,72.90
2019-02-27T02:49:15.843Z,72.90
2019-02-27T02:52:05.564Z,73.30
2019-02-27T02:54:50.578Z,73.40
2019-02-27T02:57:22.107Z,73.00
2019-02-27T03:00:13.482Z,72.70
2019-02-27T03:02:50.554Z,71.80
2019-02-27T03:05:24.578Z,72.90
2019-02-27T03:08:19.819Z,72.90
2019-02-27T03:10:59.008Z,72.80
2019-02-27T03:13:41.478Z,72.80
2019-02-27T03:16:18.016Z,73.00
2019-02-27T03:19:20.947Z,73.30
2019-02-27T03:22:10.377Z,72.80
2019-02-27T03:24:50.806Z,74.40
2019-02-27T03:27:43.164Z,73.50
2019-02-27T03:30:14.667Z,73.30
2019-02-27T03:33:05.467Z,73.70
2019-02-27T03:36:04.437Z,73.50
2019-02-27T03:38:51.112Z,73.80
2019-02-27T03:41:59.455Z,73.40
2019-02-27T03:44:33.437Z,73.60
2019-02-27T03:47:07.510Z,73.90
2019-02-27T03:49:40.803Z,73.90
2019-02-27T03:52:36.077Z,74.30
2019-02-27T03:55:08.967Z,74.40
2019-02-27T03:57:58.677Z,74.30
2019-02-27T04:00:53.804Z,74.30
2019-02-27T04:03:41.277Z,74.60
2019-02-27T04:06:21.747Z,74.70
2019-02-27T04:08:56.881Z,74.50
2019-02-27T04:11:25.192Z,74.50
2019-02-27T04:13:53.524Z,74.50
2019-02-27T04:16:21.781Z,74.70
2019-02-27T04:18:50.024Z,74.60
2019-02-27T04:21:22.074Z,74.80
2019-02-27T04:23:49.287Z,74.80
2019-02-27T04:26:19.414Z,74.60
2019-02-27T04:28:47.688Z,74.20
2019-02-27T04:31:15.944Z,74.50
2019-02-27T04:33:44.207Z,74.50
2019-02-27T04:36:13.382Z,74.90
2019-02-27T04:38:41.866Z,74.90
2019-02-27T04:41:10.110Z,75.00
2019-02-27T04:43:38.384Z,74.90
2019-02-27T04:46:06.657Z,74.20
2019-02-27T04:48:34.909Z,74.00
2019-02-27T04:51:03.149Z,74.50
2019-02-27T04:53:31.909Z,74.20
2019-02-27T04:56:00.818Z,73.80
2019-02-27T04:58:31.213Z,73.50
2019-02-27T05:00:59.793Z,73.50
2019-02-27T05:03:28.637Z,74.40
2019-02-27T05:05:57.044Z,75.30
2019-02-27T05:08:27.236Z,75.00
2019-02-27T05:10:55.259Z,75.30
2019-02-27T05:13:23.515Z,75.10
2019-02-27T05:15:51.768Z,75.50
2019-02-27T05:18:20.065Z,75.50
2019-02-27T05:20:48.318Z,75.50
2019-02-27T05:23:16.604Z,75.60
2019-02-27T05:25:44.898Z,75.50
2019-02-27T05:28:13.166Z,75.50
2019-02-27T05:30:44.799Z,75.80
2019-02-27T05:33:11.384Z,74.90
2019-02-27T05:35:39.647Z,75.30
2019-02-27T05:38:07.886Z,75.50
2019-02-27T05:40:36.133Z,75.40
2019-02-27T05:43:04.389Z,75.80
2019-02-27T05:45:32.641Z,76.00
2019-02-27T05:48:00.913Z,76.10
2019-02-27T05:50:29.146Z,75.50
2019-02-27T05:52:57.394Z,75.80
2019-02-27T05:55:25.657Z,75.90
2019-02-27T05:57:53.896Z,75.90
2019-02-27T06:00:22.538Z,76.30
2019-02-27T06:02:50.782Z,76.40
2019-02-27T06:05:19.022Z,76.40
2019-02-27T06:07:47.309Z,76.40
2019-02-27T06:10:19.750Z,76.30
2019-02-27T06:12:47.338Z,76.40
2019-02-27T06:15:35.033Z,77.20
2019-02-27T06:18:03.310Z,76.90
2019-02-27T06:20:31.542Z,77.10
2019-02-27T06:23:04.148Z,76.00
2019-02-27T06:25:29.777Z,76.00
2019-02-27T06:27:58.015Z,76.40
2019-02-27T06:30:27.902Z,76.90
2019-02-27T06:32:56.244Z,77.40
2019-02-27T06:35:24.509Z,77.40
2019-02-27T06:37:52.782Z,77.40
2019-02-27T06:40:21.041Z,77.60
2019-02-27T06:42:53.376Z,77.70
2019-02-27T06:45:19.253Z,77.90
2019-02-27T06:47:47.529Z,77.90
2019-02-27T06:50:16.426Z,78.30
2019-02-27T06:52:44.682Z,77.70
2019-02-27T06:55:14.094Z,77.60
2019-02-27T06:57:42.375Z,77.80
2019-02-27T07:00:19.124Z,77.50
2019-02-27T07:02:47.386Z,77.80
2019-02-27T07:05:15.669Z,78.30
2019-02-27T07:07:43.988Z,78.50
2019-02-27T07:10:19.512Z,78.60
2019-02-27T07:12:46.635Z,79.10
2019-02-27T07:15:23.761Z,78.90
2019-02-27T07:17:52.092Z,78.60
2019-02-27T07:20:23.878Z,78.90
2019-02-27T07:22:50.338Z,79.30
2019-02-27T07:25:18.950Z,79.60
2019-02-27T07:27:47.197Z,79.60
2019-02-27T07:30:17.216Z,79.50
2019-02-27T07:32:45.454Z,79.50
2019-02-27T07:35:14.829Z,79.90
2019-02-27T07:37:47.109Z,80.00
2019-02-27T07:40:17.711Z,79.70
2019-02-27T07:42:45.942Z,79.50
2019-02-27T07:45:19.187Z,79.40
2019-02-27T07:47:47.500Z,79.60
2019-02-27T07:50:17.777Z,79.00
2019-02-27T07:52:46.033Z,79.80
2019-02-27T07:55:21.889Z,78.50
2019-02-27T07:57:47.698Z,78.30
2019-02-27T08:00:21.195Z,78.30
2019-02-27T08:02:49.456Z,78.30
2019-02-27T08:05:17.725Z,77.90
2019-02-27T08:07:48.650Z,78.50
2019-02-27T08:10:25.851Z,76.90
2019-02-27T08:12:56.540Z,77.00
2019-02-27T08:15:25.207Z,76.90
2019-02-27T08:17:57.549Z,76.70
2019-02-27T08:20:23.797Z,76.60
2019-02-27T08:22:52.026Z,76.20
2019-02-27T08:25:20.278Z,75.80
2019-02-27T08:27:48.529Z,74.90
2019-02-27T08:30:19.342Z,74.40
2019-02-27T08:32:47.682Z,73.70
2019-02-27T08:35:16.718Z,73.00
2019-02-27T08:37:45.155Z,71.70
2019-02-27T08:40:14.035Z,69.90
2019-02-27T08:42:42.324Z,68.40
2019-02-27T08:45:19.924Z,68.90
2019-02-27T08:47:46.541Z,68.20
2019-02-27T08:50:16.507Z,68.50
2019-02-27T08:52:44.843Z,65.40
2019-02-27T08:55:19.919Z,65.20
2019-02-27T08:57:45.729Z,63.10
2019-02-27T09:00:32.885Z,62.20
2019-02-27T09:03:02.867Z,63.10
2019-02-27T09:05:31.297Z,62.90
2019-02-27T09:07:59.585Z,62.70
2019-02-27T09:10:30.402Z,63.70
2019-02-27T09:15:27.758Z,61.90
2019-02-27T09:17:56.029Z,62.40
2019-02-27T09:20:24.280Z,61.90
2019-02-27T09:22:52.537Z,59.20
2019-02-27T09:25:23.925Z,60.20
2019-02-27T09:27:50.771Z,59.60
2019-02-27T09:30:21.501Z,58.30
2019-02-27T09:32:49.762Z,57.80
2019-02-27T09:35:18.010Z,57.10
2019-02-27T09:37:48.345Z,56.80
2019-02-27T09:40:27.189Z,56.50
2019-02-27T09:42:55.430Z,55.30
2019-02-27T09:45:31.061Z,54.60
2019-02-27T09:48:00.563Z,54.30
2019-02-27T09:50:37.416Z,54.80
2019-02-27T09:53:05.693Z,54.50
2019-02-27T09:55:33.942Z,53.40
2019-02-27T09:58:02.293Z,53.00
2019-02-27T10:01:03.133Z,53.90
2019-02-27T10:03:32.889Z,52.40
2019-02-27T10:06:01.371Z,52.60
2019-02-27T10:08:29.636Z,53.10
2019-02-27T10:10:57.897Z,51.40
2019-02-27T10:13:26.170Z,51.70
2019-02-27T10:15:54.416Z,52.10
2019-02-27T10:18:22.671Z,50.10
2019-02-27T10:20:50.919Z,50.10
2019-02-27T10:23:19.192Z,49.90
2019-02-27T10:25:47.444Z,48.60
2019-02-27T10:28:15.692Z,47.70
2019-02-27T10:30:44.192Z,47.60
2019-02-27T10:33:12.578Z,45.70
2019-02-27T10:35:40.839Z,44.70
2019-02-27T10:38:09.082Z,43.20
2019-02-27T10:40:37.360Z,41.70
2019-02-27T10:43:05.627Z,42.60
2019-02-27T10:45:33.896Z,41.90
2019-02-27T10:48:02.146Z,41.00
2019-02-27T10:50:30.409Z,40.90
2019-02-27T10:52:58.678Z,38.90
2019-02-27T10:55:27.213Z,39.10
2019-02-27T10:57:55.677Z,39.30
2019-02-27T11:00:49.316Z,38.80
2019-02-27T11:03:17.586Z,38.90
2019-02-27T11:05:45.831Z,38.40
2019-02-27T11:08:14.090Z,38.60
2019-02-27T11:10:42.357Z,38.00
2019-02-27T11:13:10.615Z,37.50
2019-02-27T11:15:41.426Z,37.70
2019-02-27T11:18:08.950Z,36.80
2019-02-27T11:20:37.303Z,37.60
2019-02-27T11:23:07.088Z,37.40
2019-02-27T11:25:35.549Z,37.30
2019-02-27T11:28:03.827Z,37.60
2019-02-27T11:30:42.459Z,36.60
2019-02-27T11:33:10.801Z,37.70
2019-02-27T11:35:39.066Z,37.10
2019-02-27T11:38:07.389Z,36.80
2019-02-27T11:40:35.674Z,37.00
2019-02-27T11:43:06.710Z,37.30
2019-02-27T11:45:33.937Z,36.10
2019-02-27T11:48:02.209Z,35.90
2019-02-27T11:50:30.634Z,36.50
2019-02-27T11:53:01.829Z,37.10
2019-02-27T11:55:29.252Z,36.20
2019-02-27T11:57:57.780Z,37.50
2019-02-27T12:00:31.370Z,36.50
2019-02-27T12:02:59.748Z,36.10
2019-02-27T12:05:33.877Z,37.40
2019-02-27T12:07:58.244Z,37.90
2019-02-27T12:10:31.646Z,36.80
2019-02-27T12:13:01.230Z,36.20
2019-02-27T12:15:29.961Z,35.80
2019-02-27T12:18:00.423Z,34.60
2019-02-27T12:20:28.188Z,34.70
2019-02-27T12:22:56.451Z,34.50
2019-02-27T12:25:29.094Z,35.40
2019-02-27T12:27:56.427Z,35.30
2019-02-27T12:30:29.495Z,34.60
2019-02-27T12:32:57.783Z,34.10
2019-02-27T12:35:29.040Z,34.70
2019-02-27T12:37:57.422Z,34.40
2019-02-27T12:40:26.065Z,32.30
2019-02-27T12:42:54.530Z,30.90
2019-02-27T12:45:25.837Z,31.00
2019-02-27T12:47:54.795Z,32.40
2019-02-27T12:50:30.815Z,29.80
2019-02-27T12:52:57.353Z,31.10
2019-02-27T12:55:25.800Z,31.50
2019-02-27T12:57:54.152Z,30.50
2019-02-27T13:00:27.461Z,30.80
2019-02-27T13:02:55.855Z,31.30
2019-02-27T13:05:27.362Z,30.70
2019-02-27T13:07:54.547Z,30.70
2019-02-27T13:10:24.101Z,31.20
2019-02-27T13:12:52.666Z,30.30
2019-02-27T13:15:40.996Z,29.70
2019-02-27T13:18:09.978Z,30.50
2019-02-27T13:20:38.249Z,30.50
2019-02-27T13:23:06.516Z,29.50
2019-02-27T13:25:34.784Z,29.90
2019-02-27T13:28:03.042Z,29.10
2019-02-27T13:30:31.310Z,30.50
2019-02-27T13:33:01.286Z,28.90
2019-02-27T13:35:29.542Z,29.30
2019-02-27T13:37:57.887Z,28.30
2019-02-27T13:40:35.359Z,27.70
2019-02-27T13:44:18.108Z,28.40
2019-02-27T13:46:46.382Z,28.00
2019-02-27T13:49:14.668Z,27.80
2019-02-27T13:51:42.954Z,28.20
2019-02-27T13:54:11.199Z,27.40
2019-02-27T13:56:39.461Z,28.40
2019-02-27T13:59:11.004Z,27.40
2019-02-27T14:01:37.694Z,27.00
2019-02-27T14:04:05.957Z,26.40
2019-02-27T14:06:34.317Z,27.80
2019-02-27T14:09:04.461Z,27.60
2019-02-27T14:11:32.610Z,27.60
2019-02-27T14:14:00.885Z,26.30
2019-02-27T14:16:29.117Z,25.50
2019-02-27T14:18:57.409Z,24.30
2019-02-27T14:21:25.673Z,24.80
2019-02-27T14:23:53.949Z,24.10
2019-02-27T14:26:22.213Z,25.20
2019-02-27T14:28:52.170Z,24.80
2019-02-27T14:31:20.428Z,24.70
2019-02-27T14:33:51.181Z,24.40
2019-02-27T14:36:18.669Z,25.00
2019-02-27T14:38:46.941Z,24.10
2019-02-27T14:41:15.216Z,24.60
2019-02-27T14:43:43.472Z,25.10
2019-02-27T14:46:12.261Z,23.80
2019-02-27T14:48:40.572Z,24.00
2019-02-27T14:51:11.052Z,24.70
2019-02-27T14:53:38.798Z,23.00
2019-02-27T14:56:10.019Z,23.80
2019-02-27T14:58:37.057Z,24.50
2019-02-27T15:01:05.326Z,23.60
2019-02-27T15:03:33.599Z,23.50
2019-02-27T15:06:01.918Z,24.00
2019-02-27T15:08:30.158Z,23.50
2019-02-27T15:10:58.441Z,24.20
2019-02-27T15:13:28.308Z,24.30
2019-02-27T15:15:56.662Z,24.50
2019-02-27T15:18:24.934Z,24.40
2019-02-27T15:20:53.246Z,24.80
2019-02-27T15:23:24.589Z,24.70
2019-02-27T15:25:51.494Z,25.10
2019-02-27T15:28:19.749Z,24.90
2019-02-27T15:30:48.250Z,25.40
2019-02-27T15:33:16.551Z,25.30
2019-02-27T15:35:44.861Z,26.00
2019-02-27T15:38:13.129Z,25.90
2019-02-27T15:40:41.370Z,26.10
2019-02-27T15:43:11.521Z,27.30
2019-02-27T15:45:47.302Z,29.00
2019-02-27T15:48:09.622Z,28.30
2019-02-27T15:50:37.930Z,27.60
2019-02-27T15:53:06.207Z,28.40
2019-02-27T15:55:35.359Z,27.20
2019-02-27T15:58:04.001Z,27.40
2019-02-27T16:00:32.262Z,28.60
2019-02-27T16:03:00.523Z,27.70
2019-02-27T16:05:31.529Z,27.40
2019-02-27T16:08:00.491Z,27.20
2019-02-27T16:10:29.056Z,27.90
2019-02-27T16:13:01.007Z,29.00
2019-02-27T16:15:27.622Z,28.80
2019-02-27T16:17:55.969Z,32.30
2019-02-27T16:20:25.040Z,31.00
2019-02-27T16:22:53.336Z,29.50
2019-02-27T16:25:22.948Z,30.00
2019-02-27T16:27:51.281Z,28.80
2019-02-27T16:30:31.137Z,31.20
2019-02-27T16:32:55.480Z,29.50
2019-02-27T16:35:23.811Z,31.60
2019-02-27T16:37:56.331Z,29.10
2019-02-27T16:40:23.299Z,29.40
2019-02-27T16:42:51.748Z,31.50
2019-02-27T16:45:22.653Z,30.30
2019-02-27T16:47:50.917Z,31.40
2019-02-27T16:50:23.904Z,31.90
2019-02-27T16:52:51.220Z,34.10
2019-02-27T16:55:21.268Z,34.50
2019-02-27T16:57:49.540Z,32.90
2019-02-27T17:00:23.256Z,33.60
2019-02-27T17:02:51.573Z,34.20
2019-02-27T17:05:19.825Z,33.50
2019-02-27T17:07:48.069Z,33.50
2019-02-27T17:10:22.232Z,30.90
2019-02-27T17:12:50.493Z,33.10
2019-02-27T17:15:18.779Z,35.40
2019-02-27T17:17:47.036Z,33.10
2019-02-27T17:20:18.005Z,33.30
2019-02-27T17:22:46.274Z,31.60
2019-02-27T17:25:14.689Z,33.90
2019-02-27T17:27:43.121Z,35.60
2019-02-27T17:30:14.938Z,33.80
2019-02-27T17:32:43.173Z,35.80
2019-02-27T17:35:11.648Z,36.40
2019-02-27T17:37:40.655Z,34.90
2019-02-27T17:40:11.573Z,35.70
2019-02-27T17:42:39.891Z,35.70
2019-02-27T17:45:13.207Z,36.60
2019-02-27T17:47:41.701Z,35.40
2019-02-27T17:50:11.346Z,35.40
2019-02-27T17:52:39.658Z,37.10
2019-02-27T17:55:11.175Z,35.80
2019-02-27T17:57:39.873Z,36.10
2019-02-27T18:00:24.025Z,36.20
2019-02-27T18:02:54.315Z,35.50
2019-02-27T18:05:25.348Z,36.70
2019-02-27T18:07:52.598Z,37.10
2019-02-27T18:10:21.145Z,36.80
2019-02-27T18:12:51.662Z,37.80
2019-02-27T18:15:21.613Z,37.00
2019-02-27T18:17:49.914Z,37.70
2019-02-27T18:20:18.167Z,39.30
2019-02-27T18:22:49.390Z,38.10
2019-02-27T18:25:18.080Z,37.30
2019-02-27T18:27:47.903Z,38.90
2019-02-27T18:30:20.857Z,40.30
2019-02-27T18:32:49.453Z,39.30
2019-02-27T18:35:18.743Z,38.30
2019-02-27T18:37:46.986Z,35.20
2019-02-27T18:40:16.296Z,37.60
2019-02-27T18:42:44.544Z,37.40
2019-02-27T18:45:16.235Z,37.80
2019-02-27T18:47:44.500Z,38.50
2019-02-27T18:50:14.285Z,39.70
2019-02-27T18:52:42.530Z,40.60
2019-02-27T18:55:14.997Z,40.30
2019-02-27T18:57:47.268Z,40.70
2019-02-27T19:00:21.730Z,40.80
2019-02-27T19:02:55.431Z,42.10
2019-02-27T19:05:23.784Z,42.80
2019-02-27T19:07:55.014Z,42.00
2019-02-27T19:10:22.093Z,42.20
2019-02-27T19:12:50.364Z,43.00
2019-02-27T19:15:28.926Z,42.60
2019-02-27T19:17:57.173Z,43.40
2019-02-27T19:20:46.331Z,44.20
2019-02-27T19:23:17.275Z,44.00
2019-02-27T19:25:44.588Z,44.30
2019-02-27T19:28:12.841Z,44.80
2019-02-27T19:30:41.764Z,44.20
2019-02-27T19:33:10.912Z,44.70
2019-02-27T19:35:39.728Z,44.70
2019-02-27T19:38:12.584Z,45.20
2019-02-27T19:40:37.966Z,45.60
2019-02-27T19:43:06.421Z,46.00
2019-02-27T19:45:35.755Z,46.60
2019-02-27T19:48:04.776Z,46.30
2019-02-27T19:50:33.066Z,46.20
2019-02-27T19:53:05.218Z,46.70
2019-02-27T19:55:31.302Z,46.70
2019-02-27T19:57:59.602Z,47.50
2019-02-27T20:00:35.028Z,47.30
2019-02-27T20:03:02.375Z,47.70
2019-02-27T20:05:30.867Z,48.50
2019-02-27T20:07:59.102Z,47.40
2019-02-27T20:10:32.257Z,47.90
2019-02-27T20:12:58.925Z,47.70
2019-02-27T20:15:27.199Z,48.10
2019-02-27T20:17:55.521Z,48.60
2019-02-27T20:20:24.222Z,48.80
2019-02-27T20:22:53.551Z,49.40
2019-02-27T20:25:24.561Z,49.50
2019-02-27T20:27:52.828Z,49.30
2019-02-27T20:30:22.177Z,49.50
2019-02-27T20:32:50.533Z,50.60
2019-02-27T20:35:20.844Z,50.60
2019-02-27T20:37:49.305Z,51.70
2019-02-27T20:40:19.500Z,51.40
2019-02-27T20:42:51.427Z,52.00
2019-02-27T20:45:19.382Z,51.70
2019-02-27T20:47:47.654Z,51.10
2019-02-27T20:50:39.974Z,50.90
2019-02-27T20:53:10.268Z,51.40
2019-02-27T20:55:38.505Z,51.60
2019-02-27T20:58:06.970Z,51.70
2019-02-27T21:00:36.530Z,52.60
2019-02-27T21:03:08.996Z,52.40
2019-02-27T21:05:40.990Z,52.60
2019-02-27T21:08:07.590Z,52.70
2019-02-27T21:10:35.868Z,53.00
2019-02-27T21:13:04.598Z,53.30
2019-02-27T21:15:33.442Z,53.60
2019-02-27T21:18:01.851Z,54.00
2019-02-27T21:20:30.113Z,53.60
2019-02-27T21:22:59.933Z,54.40
2019-02-27T21:25:28.520Z,54.10
2019-02-27T21:27:56.776Z,54.80
2019-02-27T21:30:25.785Z,55.00
2019-02-27T21:32:54.064Z,55.20
2019-02-27T21:35:22.318Z,55.50
2019-02-27T21:37:51.091Z,55.80
2019-02-27T21:40:40.447Z,55.80
2019-02-27T21:43:08.682Z,55.80
2019-02-27T21:45:37.422Z,56.00
2019-02-27T21:48:06.748Z,56.10
2019-02-27T21:50:39.598Z,56.30
2019-02-27T21:53:05.086Z,56.10
2019-02-27T21:55:33.456Z,56.60
2019-02-27T21:58:01.853Z,57.30
2019-02-27T22:00:30.486Z,57.20
2019-02-27T22:03:03.870Z,57.20
2019-02-27T22:05:52.598Z,57.40
2019-02-27T22:08:18.771Z,58.00
2019-02-27T22:10:47.052Z,58.10
2019-02-27T22:13:15.333Z,58.40
2019-02-27T22:15:43.600Z,58.90
2019-02-27T22:18:12.160Z,59.00
2019-02-27T22:20:40.475Z,58.80
2019-02-27T22:23:08.731Z,59.20
2019-02-27T22:25:37.011Z,59.70
2019-02-27T22:28:05.244Z,59.40
2019-02-27T22:30:33.557Z,59.70
2019-02-27T22:33:01.905Z,59.70
2019-02-27T22:35:30.505Z,60.10
2019-02-27T22:37:58.896Z,60.80
2019-02-27T22:40:27.255Z,60.50
2019-02-27T22:42:55.505Z,60.90
2019-02-27T22:45:23.774Z,61.60
2019-02-27T22:47:54.025Z,61.90
2019-02-27T22:50:22.022Z,62.00
2019-02-27T22:52:54.060Z,61.60
2019-02-27T22:55:20.261Z,62.20
2019-02-27T22:57:48.503Z,62.50
2019-02-27T23:00:53.297Z,62.80
2019-02-27T23:03:24.513Z,63.50
2019-02-27T23:05:52.889Z,64.40
2019-02-27T23:08:22.994Z,64.80
2019-02-27T23:10:51.124Z,63.90
2019-02-27T23:13:19.378Z,64.70
2019-02-27T23:15:47.640Z,65.70
2019-02-27T23:18:16.942Z,66.30
2019-02-27T23:20:45.233Z,67.20
2019-02-27T23:23:13.481Z,67.40
2019-02-27T23:25:42.300Z,67.20
2019-02-27T23:28:10.581Z,67.40
2019-02-27T23:30:38.831Z,68.10
2019-02-27T23:33:08.301Z,69.00
2019-02-27T23:35:36.568Z,69.80
2019-02-27T23:38:04.829Z,71.10
2019-02-27T23:40:33.101Z,71.80
2019-02-27T23:43:03.303Z,72.50
2019-02-27T23:45:31.329Z,72.90
2019-02-27T23:48:02.167Z,73.80
2019-02-27T23:50:29.546Z,73.80
2019-02-27T23:52:57.790Z,74.50
2019-02-27T23:55:26.071Z,74.70
2019-02-27T23:57:57.534Z,75.40
